sensor_id;sensor_type;location;lat;lon;timestamp;P1;durP1;ratioP1;P2;durP2;ratioP2
9898;SDS011;4988;49.238;6.698;2023-02-02T00:01:36;25.07;;;5.50;;
9898;SDS011;4988;49.238;6.698;2023-02-02T00:04:02;28.47;;;5.67;;
9898;SDS011;4988;49.238;6.698;2023-02-02T00:06:28;21.87;;;5.37;;
9898;SDS011;4988;49.238;6.698;2023-02-02T00:08:55;21.07;;;5.07;;
9898;SDS011;4988;49.238;6.698;2023-02-02T00:11:22;20.83;;;5.80;;
9898;SDS011;4988;49.238;6.698;2023-02-02T00:13:47;30.13;;;6.80;;
9898;SDS011;4988;49.238;6.698;2023-02-02T00:16:46;23.57;;;6.53;;
9898;SDS011;4988;49.238;6.698;2023-02-02T00:19:10;22.97;;;5.50;;
9898;SDS011;4988;49.238;6.698;2023-02-02T00:21:40;28.93;;;5.70;;
9898;SDS011;4988;49.238;6.698;2023-02-02T00:24:07;24.23;;;4.93;;
9898;SDS011;4988;49.238;6.698;2023-02-02T00:26:34;22.63;;;5.40;;
9898;SDS011;4988;49.238;6.698;2023-02-02T00:29:00;25.10;;;5.30;;
9898;SDS011;4988;49.238;6.698;2023-02-02T00:31:26;26.67;;;5.27;;
9898;SDS011;4988;49.238;6.698;2023-02-02T00:33:51;16.57;;;5.13;;
9898;SDS011;4988;49.238;6.698;2023-02-02T00:36:17;29.67;;;5.10;;
9898;SDS011;4988;49.238;6.698;2023-02-02T00:38:44;25.33;;;6.43;;
9898;SDS011;4988;49.238;6.698;2023-02-02T00:41:10;26.90;;;5.77;;
9898;SDS011;4988;49.238;6.698;2023-02-02T00:43:35;25.07;;;5.77;;
9898;SDS011;4988;49.238;6.698;2023-02-02T00:46:00;23.77;;;5.40;;
9898;SDS011;4988;49.238;6.698;2023-02-02T00:48:26;23.70;;;7.20;;
9898;SDS011;4988;49.238;6.698;2023-02-02T00:50:51;22.27;;;5.23;;
9898;SDS011;4988;49.238;6.698;2023-02-02T00:53:17;18.63;;;5.07;;
9898;SDS011;4988;49.238;6.698;2023-02-02T00:55:43;27.73;;;5.23;;
9898;SDS011;4988;49.238;6.698;2023-02-02T00:58:08;22.40;;;4.97;;
9898;SDS011;4988;49.238;6.698;2023-02-02T01:00:34;34.07;;;6.30;;
9898;SDS011;4988;49.238;6.698;2023-02-02T01:03:00;26.93;;;4.80;;
9898;SDS011;4988;49.238;6.698;2023-02-02T01:05:32;29.27;;;5.47;;
9898;SDS011;4988;49.238;6.698;2023-02-02T01:07:58;21.60;;;6.50;;
9898;SDS011;4988;49.238;6.698;2023-02-02T01:10:24;21.83;;;5.80;;
9898;SDS011;4988;49.238;6.698;2023-02-02T01:12:50;22.47;;;5.13;;
9898;SDS011;4988;49.238;6.698;2023-02-02T01:15:15;27.33;;;5.67;;
9898;SDS011;4988;49.238;6.698;2023-02-02T01:17:41;26.27;;;5.23;;
9898;SDS011;4988;49.238;6.698;2023-02-02T01:20:07;20.67;;;5.20;;
9898;SDS011;4988;49.238;6.698;2023-02-02T01:22:35;24.07;;;5.33;;
9898;SDS011;4988;49.238;6.698;2023-02-02T01:25:02;29.30;;;5.73;;
9898;SDS011;4988;49.238;6.698;2023-02-02T01:27:28;20.13;;;5.73;;
9898;SDS011;4988;49.238;6.698;2023-02-02T01:29:54;28.53;;;5.77;;
9898;SDS011;4988;49.238;6.698;2023-02-02T01:32:19;26.23;;;5.17;;
9898;SDS011;4988;49.238;6.698;2023-02-02T01:34:44;33.20;;;6.73;;
9898;SDS011;4988;49.238;6.698;2023-02-02T01:37:10;22.17;;;5.63;;
9898;SDS011;4988;49.238;6.698;2023-02-02T01:39:35;17.83;;;5.97;;
9898;SDS011;4988;49.238;6.698;2023-02-02T01:42:01;22.70;;;5.47;;
9898;SDS011;4988;49.238;6.698;2023-02-02T01:47:18;22.57;;;6.37;;
9898;SDS011;4988;49.238;6.698;2023-02-02T01:49:47;23.17;;;5.37;;
9898;SDS011;4988;49.238;6.698;2023-02-02T01:52:12;23.93;;;6.13;;
9898;SDS011;4988;49.238;6.698;2023-02-02T01:54:41;23.33;;;5.00;;
9898;SDS011;4988;49.238;6.698;2023-02-02T01:57:12;27.40;;;5.50;;
9898;SDS011;4988;49.238;6.698;2023-02-02T01:59:41;27.73;;;6.33;;
9898;SDS011;4988;49.238;6.698;2023-02-02T02:02:08;17.10;;;5.40;;
9898;SDS011;4988;49.238;6.698;2023-02-02T02:04:34;27.40;;;5.00;;
9898;SDS011;4988;49.238;6.698;2023-02-02T02:07:00;22.43;;;4.80;;
9898;SDS011;4988;49.238;6.698;2023-02-02T02:09:26;25.97;;;4.83;;
9898;SDS011;4988;49.238;6.698;2023-02-02T02:11:52;31.00;;;5.53;;
9898;SDS011;4988;49.238;6.698;2023-02-02T02:14:18;26.20;;;5.33;;
9898;SDS011;4988;49.238;6.698;2023-02-02T02:26:46;23.07;;;5.47;;
9898;SDS011;4988;49.238;6.698;2023-02-02T02:38:09;24.27;;;5.47;;
9898;SDS011;4988;49.238;6.698;2023-02-02T02:40:44;17.23;;;4.57;;
9898;SDS011;4988;49.238;6.698;2023-02-02T02:43:16;23.57;;;5.53;;
9898;SDS011;4988;49.238;6.698;2023-02-02T02:45:46;18.03;;;5.20;;
9898;SDS011;4988;49.238;6.698;2023-02-02T02:48:12;23.67;;;5.20;;
9898;SDS011;4988;49.238;6.698;2023-02-02T02:50:38;22.97;;;5.07;;
9898;SDS011;4988;49.238;6.698;2023-02-02T02:53:16;21.20;;;5.23;;
9898;SDS011;4988;49.238;6.698;2023-02-02T02:56:01;22.27;;;5.07;;
9898;SDS011;4988;49.238;6.698;2023-02-02T03:01:24;28.50;;;5.57;;
9898;SDS011;4988;49.238;6.698;2023-02-02T03:04:05;23.77;;;5.83;;
9898;SDS011;4988;49.238;6.698;2023-02-02T03:06:41;27.47;;;5.33;;
9898;SDS011;4988;49.238;6.698;2023-02-02T03:09:14;21.90;;;5.03;;
9898;SDS011;4988;49.238;6.698;2023-02-02T03:11:47;20.90;;;5.33;;
9898;SDS011;4988;49.238;6.698;2023-02-02T03:14:12;26.17;;;5.13;;
9898;SDS011;4988;49.238;6.698;2023-02-02T03:16:37;30.20;;;5.33;;
9898;SDS011;4988;49.238;6.698;2023-02-02T03:19:03;21.30;;;4.90;;
9898;SDS011;4988;49.238;6.698;2023-02-02T03:21:30;23.17;;;4.80;;
9898;SDS011;4988;49.238;6.698;2023-02-02T03:23:56;29.87;;;5.90;;
9898;SDS011;4988;49.238;6.698;2023-02-02T03:26:22;21.33;;;5.37;;
9898;SDS011;4988;49.238;6.698;2023-02-02T03:28:48;21.53;;;4.63;;
9898;SDS011;4988;49.238;6.698;2023-02-02T03:31:15;23.33;;;5.53;;
9898;SDS011;4988;49.238;6.698;2023-02-02T03:33:40;22.63;;;4.73;;
9898;SDS011;4988;49.238;6.698;2023-02-02T03:36:06;29.93;;;5.37;;
9898;SDS011;4988;49.238;6.698;2023-02-02T03:38:31;20.73;;;5.20;;
9898;SDS011;4988;49.238;6.698;2023-02-02T03:40:56;24.87;;;5.27;;
9898;SDS011;4988;49.238;6.698;2023-02-02T03:43:22;18.00;;;4.37;;
9898;SDS011;4988;49.238;6.698;2023-02-02T03:45:58;19.73;;;4.87;;
9898;SDS011;4988;49.238;6.698;2023-02-02T03:48:25;20.37;;;4.73;;
9898;SDS011;4988;49.238;6.698;2023-02-02T03:50:51;24.03;;;5.10;;
9898;SDS011;4988;49.238;6.698;2023-02-02T03:53:17;32.70;;;5.93;;
9898;SDS011;4988;49.238;6.698;2023-02-02T03:55:42;27.33;;;5.13;;
9898;SDS011;4988;49.238;6.698;2023-02-02T03:58:07;23.10;;;5.57;;
9898;SDS011;4988;49.238;6.698;2023-02-02T04:00:32;23.60;;;5.00;;
9898;SDS011;4988;49.238;6.698;2023-02-02T04:02:58;33.47;;;6.17;;
9898;SDS011;4988;49.238;6.698;2023-02-02T04:05:23;25.67;;;5.40;;
9898;SDS011;4988;49.238;6.698;2023-02-02T04:07:49;22.53;;;5.33;;
9898;SDS011;4988;49.238;6.698;2023-02-02T04:10:15;22.23;;;5.33;;
9898;SDS011;4988;49.238;6.698;2023-02-02T04:12:41;27.70;;;5.60;;
9898;SDS011;4988;49.238;6.698;2023-02-02T04:15:06;20.23;;;5.47;;
9898;SDS011;4988;49.238;6.698;2023-02-02T04:17:32;21.70;;;4.83;;
9898;SDS011;4988;49.238;6.698;2023-02-02T04:19:57;27.50;;;5.00;;
9898;SDS011;4988;49.238;6.698;2023-02-02T04:22:23;24.87;;;5.77;;
9898;SDS011;4988;49.238;6.698;2023-02-02T04:24:50;22.10;;;5.20;;
9898;SDS011;4988;49.238;6.698;2023-02-02T04:27:15;33.80;;;8.13;;
9898;SDS011;4988;49.238;6.698;2023-02-02T04:29:40;25.73;;;6.33;;
9898;SDS011;4988;49.238;6.698;2023-02-02T04:32:06;24.03;;;5.63;;
9898;SDS011;4988;49.238;6.698;2023-02-02T04:34:31;23.57;;;5.40;;
9898;SDS011;4988;49.238;6.698;2023-02-02T04:36:56;33.43;;;5.70;;
9898;SDS011;4988;49.238;6.698;2023-02-02T04:39:22;26.33;;;6.50;;
9898;SDS011;4988;49.238;6.698;2023-02-02T04:41:47;30.70;;;5.97;;
9898;SDS011;4988;49.238;6.698;2023-02-02T04:44:13;25.43;;;5.53;;
9898;SDS011;4988;49.238;6.698;2023-02-02T04:46:40;30.17;;;5.63;;
9898;SDS011;4988;49.238;6.698;2023-02-02T04:49:07;30.43;;;5.57;;
9898;SDS011;4988;49.238;6.698;2023-02-02T04:51:34;29.57;;;5.80;;
9898;SDS011;4988;49.238;6.698;2023-02-02T04:53:59;23.83;;;5.80;;
9898;SDS011;4988;49.238;6.698;2023-02-02T04:56:24;22.77;;;5.60;;
9898;SDS011;4988;49.238;6.698;2023-02-02T04:58:52;27.17;;;5.57;;
9898;SDS011;4988;49.238;6.698;2023-02-02T05:01:18;21.50;;;5.70;;
9898;SDS011;4988;49.238;6.698;2023-02-02T05:03:44;25.67;;;6.77;;
9898;SDS011;4988;49.238;6.698;2023-02-02T05:06:11;32.23;;;5.80;;
9898;SDS011;4988;49.238;6.698;2023-02-02T05:08:36;22.13;;;5.60;;
9898;SDS011;4988;49.238;6.698;2023-02-02T05:11:08;41.73;;;7.40;;
9898;SDS011;4988;49.238;6.698;2023-02-02T05:13:34;21.90;;;5.07;;
9898;SDS011;4988;49.238;6.698;2023-02-02T05:15:59;19.20;;;6.13;;
9898;SDS011;4988;49.238;6.698;2023-02-02T05:18:25;20.73;;;4.90;;
9898;SDS011;4988;49.238;6.698;2023-02-02T05:20:50;26.00;;;5.70;;
9898;SDS011;4988;49.238;6.698;2023-02-02T05:23:16;25.50;;;5.20;;
9898;SDS011;4988;49.238;6.698;2023-02-02T05:25:42;27.40;;;5.30;;
9898;SDS011;4988;49.238;6.698;2023-02-02T05:28:07;26.07;;;5.43;;
9898;SDS011;4988;49.238;6.698;2023-02-02T05:30:33;16.33;;;5.30;;
9898;SDS011;4988;49.238;6.698;2023-02-02T05:32:58;29.47;;;5.97;;
9898;SDS011;4988;49.238;6.698;2023-02-02T05:35:23;29.57;;;5.73;;
9898;SDS011;4988;49.238;6.698;2023-02-02T05:37:48;25.83;;;6.73;;
9898;SDS011;4988;49.238;6.698;2023-02-02T05:40:14;24.80;;;5.77;;
9898;SDS011;4988;49.238;6.698;2023-02-02T05:42:39;25.63;;;5.47;;
9898;SDS011;4988;49.238;6.698;2023-02-02T05:45:05;24.27;;;5.20;;
9898;SDS011;4988;49.238;6.698;2023-02-02T05:47:30;30.90;;;6.07;;
9898;SDS011;4988;49.238;6.698;2023-02-02T05:49:55;14.10;;;4.93;;
9898;SDS011;4988;49.238;6.698;2023-02-02T05:52:21;29.50;;;5.70;;
9898;SDS011;4988;49.238;6.698;2023-02-02T05:54:49;23.60;;;5.80;;
9898;SDS011;4988;49.238;6.698;2023-02-02T05:57:16;30.00;;;5.67;;
9898;SDS011;4988;49.238;6.698;2023-02-02T05:59:41;26.93;;;5.63;;
9898;SDS011;4988;49.238;6.698;2023-02-02T06:02:06;29.63;;;6.00;;
9898;SDS011;4988;49.238;6.698;2023-02-02T06:04:32;30.47;;;5.13;;
9898;SDS011;4988;49.238;6.698;2023-02-02T06:06:57;30.47;;;5.30;;
9898;SDS011;4988;49.238;6.698;2023-02-02T06:09:22;25.77;;;5.93;;
9898;SDS011;4988;49.238;6.698;2023-02-02T06:11:49;16.80;;;5.40;;
9898;SDS011;4988;49.238;6.698;2023-02-02T06:14:14;16.33;;;5.13;;
9898;SDS011;4988;49.238;6.698;2023-02-02T06:16:40;23.00;;;5.70;;
9898;SDS011;4988;49.238;6.698;2023-02-02T06:19:05;23.67;;;6.03;;
9898;SDS011;4988;49.238;6.698;2023-02-02T06:21:30;24.60;;;6.17;;
9898;SDS011;4988;49.238;6.698;2023-02-02T06:23:56;24.57;;;5.50;;
9898;SDS011;4988;49.238;6.698;2023-02-02T06:26:22;25.23;;;5.30;;
9898;SDS011;4988;49.238;6.698;2023-02-02T06:28:48;25.63;;;5.30;;
9898;SDS011;4988;49.238;6.698;2023-02-02T06:31:15;21.30;;;5.80;;
9898;SDS011;4988;49.238;6.698;2023-02-02T06:33:46;30.40;;;6.00;;
9898;SDS011;4988;49.238;6.698;2023-02-02T06:36:12;22.73;;;6.60;;
9898;SDS011;4988;49.238;6.698;2023-02-02T06:38:38;27.30;;;6.43;;
9898;SDS011;4988;49.238;6.698;2023-02-02T06:41:04;28.93;;;6.63;;
9898;SDS011;4988;49.238;6.698;2023-02-02T06:43:30;31.00;;;5.90;;
9898;SDS011;4988;49.238;6.698;2023-02-02T06:45:56;35.93;;;6.80;;
9898;SDS011;4988;49.238;6.698;2023-02-02T06:48:22;21.23;;;6.23;;
9898;SDS011;4988;49.238;6.698;2023-02-02T06:50:47;30.20;;;6.70;;
9898;SDS011;4988;49.238;6.698;2023-02-02T06:53:13;23.17;;;5.90;;
9898;SDS011;4988;49.238;6.698;2023-02-02T06:55:38;24.30;;;7.10;;
9898;SDS011;4988;49.238;6.698;2023-02-02T06:58:03;26.73;;;6.40;;
9898;SDS011;4988;49.238;6.698;2023-02-02T07:00:29;32.23;;;6.47;;
9898;SDS011;4988;49.238;6.698;2023-02-02T07:02:54;24.07;;;5.63;;
9898;SDS011;4988;49.238;6.698;2023-02-02T07:05:20;23.97;;;5.77;;
9898;SDS011;4988;49.238;6.698;2023-02-02T07:07:48;29.67;;;5.93;;
9898;SDS011;4988;49.238;6.698;2023-02-02T07:10:14;23.37;;;6.13;;
9898;SDS011;4988;49.238;6.698;2023-02-02T07:12:40;31.43;;;6.13;;
9898;SDS011;4988;49.238;6.698;2023-02-02T07:15:05;20.50;;;5.77;;
9898;SDS011;4988;49.238;6.698;2023-02-02T07:17:31;27.20;;;5.87;;
9898;SDS011;4988;49.238;6.698;2023-02-02T07:19:56;18.03;;;6.23;;
9898;SDS011;4988;49.238;6.698;2023-02-02T07:22:22;24.97;;;6.00;;
9898;SDS011;4988;49.238;6.698;2023-02-02T07:24:47;23.33;;;6.47;;
9898;SDS011;4988;49.238;6.698;2023-02-02T07:27:12;25.30;;;6.07;;
9898;SDS011;4988;49.238;6.698;2023-02-02T07:29:38;22.73;;;6.03;;
9898;SDS011;4988;49.238;6.698;2023-02-02T07:32:03;20.13;;;6.00;;
9898;SDS011;4988;49.238;6.698;2023-02-02T07:34:29;25.67;;;6.10;;
9898;SDS011;4988;49.238;6.698;2023-02-02T07:36:54;22.97;;;5.63;;
9898;SDS011;4988;49.238;6.698;2023-02-02T07:39:19;22.03;;;6.03;;
9898;SDS011;4988;49.238;6.698;2023-02-02T07:41:45;27.93;;;5.93;;
9898;SDS011;4988;49.238;6.698;2023-02-02T07:44:13;26.17;;;5.47;;
9898;SDS011;4988;49.238;6.698;2023-02-02T07:46:42;26.67;;;5.40;;
9898;SDS011;4988;49.238;6.698;2023-02-02T07:49:14;25.57;;;5.37;;
9898;SDS011;4988;49.238;6.698;2023-02-02T07:51:40;30.53;;;5.90;;
9898;SDS011;4988;49.238;6.698;2023-02-02T07:54:06;24.33;;;5.47;;
9898;SDS011;4988;49.238;6.698;2023-02-02T07:56:33;24.03;;;5.77;;
9898;SDS011;4988;49.238;6.698;2023-02-02T07:58:58;27.07;;;5.70;;
9898;SDS011;4988;49.238;6.698;2023-02-02T08:01:25;23.23;;;6.30;;
9898;SDS011;4988;49.238;6.698;2023-02-02T08:03:51;26.73;;;6.00;;
9898;SDS011;4988;49.238;6.698;2023-02-02T08:06:22;25.83;;;5.63;;
9898;SDS011;4988;49.238;6.698;2023-02-02T08:08:49;30.40;;;6.20;;
9898;SDS011;4988;49.238;6.698;2023-02-02T08:11:16;32.40;;;6.63;;
9898;SDS011;4988;49.238;6.698;2023-02-02T08:13:43;28.17;;;6.20;;
9898;SDS011;4988;49.238;6.698;2023-02-02T08:16:09;25.30;;;5.03;;
9898;SDS011;4988;49.238;6.698;2023-02-02T08:18:36;25.13;;;5.67;;
9898;SDS011;4988;49.238;6.698;2023-02-02T08:21:02;22.33;;;6.97;;
9898;SDS011;4988;49.238;6.698;2023-02-02T08:23:29;27.00;;;6.60;;
9898;SDS011;4988;49.238;6.698;2023-02-02T08:26:04;18.10;;;5.70;;
9898;SDS011;4988;49.238;6.698;2023-02-02T08:28:35;35.67;;;7.10;;
9898;SDS011;4988;49.238;6.698;2023-02-02T08:31:07;22.80;;;5.77;;
9898;SDS011;4988;49.238;6.698;2023-02-02T08:33:35;20.17;;;5.60;;
9898;SDS011;4988;49.238;6.698;2023-02-02T08:36:01;20.00;;;6.10;;
9898;SDS011;4988;49.238;6.698;2023-02-02T08:38:27;27.23;;;5.97;;
9898;SDS011;4988;49.238;6.698;2023-02-02T08:40:53;18.47;;;5.40;;
9898;SDS011;4988;49.238;6.698;2023-02-02T08:43:18;23.77;;;5.47;;
9898;SDS011;4988;49.238;6.698;2023-02-02T08:45:44;23.83;;;6.30;;
9898;SDS011;4988;49.238;6.698;2023-02-02T08:48:09;25.80;;;5.73;;
9898;SDS011;4988;49.238;6.698;2023-02-02T08:50:34;29.00;;;6.20;;
9898;SDS011;4988;49.238;6.698;2023-02-02T08:53:00;25.80;;;5.80;;
9898;SDS011;4988;49.238;6.698;2023-02-02T08:55:26;31.27;;;8.63;;
9898;SDS011;4988;49.238;6.698;2023-02-02T08:57:51;22.57;;;5.73;;
9898;SDS011;4988;49.238;6.698;2023-02-02T09:00:16;24.63;;;6.07;;
9898;SDS011;4988;49.238;6.698;2023-02-02T09:02:42;26.37;;;6.57;;
9898;SDS011;4988;49.238;6.698;2023-02-02T09:05:08;32.07;;;6.50;;
9898;SDS011;4988;49.238;6.698;2023-02-02T09:07:33;27.50;;;7.03;;
9898;SDS011;4988;49.238;6.698;2023-02-02T09:09:59;25.97;;;6.10;;
9898;SDS011;4988;49.238;6.698;2023-02-02T09:12:24;23.43;;;6.77;;
9898;SDS011;4988;49.238;6.698;2023-02-02T09:14:50;27.87;;;5.57;;
9898;SDS011;4988;49.238;6.698;2023-02-02T09:17:15;22.17;;;6.10;;
9898;SDS011;4988;49.238;6.698;2023-02-02T09:19:40;26.00;;;6.27;;
9898;SDS011;4988;49.238;6.698;2023-02-02T09:22:06;22.13;;;5.67;;
9898;SDS011;4988;49.238;6.698;2023-02-02T09:24:31;28.20;;;5.97;;
9898;SDS011;4988;49.238;6.698;2023-02-02T09:26:56;23.47;;;5.40;;
9898;SDS011;4988;49.238;6.698;2023-02-02T09:29:21;24.20;;;6.17;;
9898;SDS011;4988;49.238;6.698;2023-02-02T09:31:47;21.87;;;5.87;;
9898;SDS011;4988;49.238;6.698;2023-02-02T09:34:13;25.93;;;5.67;;
9898;SDS011;4988;49.238;6.698;2023-02-02T09:36:39;20.20;;;5.43;;
9898;SDS011;4988;49.238;6.698;2023-02-02T09:39:05;26.17;;;5.87;;
9898;SDS011;4988;49.238;6.698;2023-02-02T09:47:08;19.53;;;6.73;;
9898;SDS011;4988;49.238;6.698;2023-02-02T09:50:25;19.40;;;5.40;;
9898;SDS011;4988;49.238;6.698;2023-02-02T10:00:51;25.13;;;5.60;;
9898;SDS011;4988;49.238;6.698;2023-02-02T10:03:22;22.83;;;5.10;;
9898;SDS011;4988;49.238;6.698;2023-02-02T10:06:01;24.70;;;5.90;;
9898;SDS011;4988;49.238;6.698;2023-02-02T10:08:33;17.70;;;5.67;;
9898;SDS011;4988;49.238;6.698;2023-02-02T10:14:11;25.53;;;5.93;;
9898;SDS011;4988;49.238;6.698;2023-02-02T10:16:44;19.20;;;5.13;;
9898;SDS011;4988;49.238;6.698;2023-02-02T10:19:13;23.87;;;6.17;;
9898;SDS011;4988;49.238;6.698;2023-02-02T10:21:42;29.03;;;6.20;;
9898;SDS011;4988;49.238;6.698;2023-02-02T10:24:19;24.80;;;6.20;;
9898;SDS011;4988;49.238;6.698;2023-02-02T10:26:54;21.43;;;5.00;;
9898;SDS011;4988;49.238;6.698;2023-02-02T10:39:18;27.07;;;6.83;;
9898;SDS011;4988;49.238;6.698;2023-02-02T10:47:28;27.73;;;5.20;;
9898;SDS011;4988;49.238;6.698;2023-02-02T10:50:29;15.70;;;5.13;;
9898;SDS011;4988;49.238;6.698;2023-02-02T10:52:55;24.10;;;5.57;;
9898;SDS011;4988;49.238;6.698;2023-02-02T10:55:27;20.93;;;5.23;;
9898;SDS011;4988;49.238;6.698;2023-02-02T11:03:15;18.83;;;4.97;;
9898;SDS011;4988;49.238;6.698;2023-02-02T11:05:41;20.87;;;4.30;;
9898;SDS011;4988;49.238;6.698;2023-02-02T11:08:30;21.43;;;4.70;;
9898;SDS011;4988;49.238;6.698;2023-02-02T11:11:12;15.97;;;4.27;;
9898;SDS011;4988;49.238;6.698;2023-02-02T11:16:24;16.40;;;4.33;;
9898;SDS011;4988;49.238;6.698;2023-02-02T11:18:51;14.97;;;4.10;;
9898;SDS011;4988;49.238;6.698;2023-02-02T11:21:21;20.37;;;5.43;;
9898;SDS011;4988;49.238;6.698;2023-02-02T11:26:55;18.37;;;4.37;;
9898;SDS011;4988;49.238;6.698;2023-02-02T11:31:53;13.80;;;3.83;;
9898;SDS011;4988;49.238;6.698;2023-02-02T11:34:22;14.17;;;4.00;;
9898;SDS011;4988;49.238;6.698;2023-02-02T11:39:46;18.20;;;4.83;;
9898;SDS011;4988;49.238;6.698;2023-02-02T11:44:41;15.03;;;3.93;;
9898;SDS011;4988;49.238;6.698;2023-02-02T11:47:15;13.13;;;4.13;;
9898;SDS011;4988;49.238;6.698;2023-02-02T11:49:44;10.60;;;4.10;;
9898;SDS011;4988;49.238;6.698;2023-02-02T11:52:20;16.47;;;3.90;;
9898;SDS011;4988;49.238;6.698;2023-02-02T11:54:54;23.20;;;4.63;;
9898;SDS011;4988;49.238;6.698;2023-02-02T11:57:23;12.53;;;3.63;;
9898;SDS011;4988;49.238;6.698;2023-02-02T11:59:51;14.97;;;3.93;;
9898;SDS011;4988;49.238;6.698;2023-02-02T12:02:50;16.87;;;3.60;;
9898;SDS011;4988;49.238;6.698;2023-02-02T12:07:44;14.43;;;4.07;;
9898;SDS011;4988;49.238;6.698;2023-02-02T12:17:47;17.47;;;4.20;;
9898;SDS011;4988;49.238;6.698;2023-02-02T12:25:45;17.23;;;4.20;;
9898;SDS011;4988;49.238;6.698;2023-02-02T12:31:23;13.07;;;3.93;;
9898;SDS011;4988;49.238;6.698;2023-02-02T12:33:53;16.87;;;4.33;;
9898;SDS011;4988;49.238;6.698;2023-02-02T12:39:39;12.53;;;3.60;;
9898;SDS011;4988;49.238;6.698;2023-02-02T12:42:16;14.10;;;4.13;;
9898;SDS011;4988;49.238;6.698;2023-02-02T12:44:47;15.43;;;3.83;;
9898;SDS011;4988;49.238;6.698;2023-02-02T12:47:25;17.77;;;4.47;;
9898;SDS011;4988;49.238;6.698;2023-02-02T12:50:17;14.97;;;3.63;;
9898;SDS011;4988;49.238;6.698;2023-02-02T12:58:35;11.20;;;3.87;;
9898;SDS011;4988;49.238;6.698;2023-02-02T13:04:22;11.57;;;4.03;;
9898;SDS011;4988;49.238;6.698;2023-02-02T13:12:40;12.83;;;3.70;;
9898;SDS011;4988;49.238;6.698;2023-02-02T13:15:12;14.07;;;3.67;;
9898;SDS011;4988;49.238;6.698;2023-02-02T13:17:47;14.33;;;3.67;;
9898;SDS011;4988;49.238;6.698;2023-02-02T13:22:45;10.87;;;3.60;;
9898;SDS011;4988;49.238;6.698;2023-02-02T13:25:15;12.63;;;3.50;;
9898;SDS011;4988;49.238;6.698;2023-02-02T13:27:45;13.50;;;3.47;;
9898;SDS011;4988;49.238;6.698;2023-02-02T13:30:21;10.47;;;3.83;;
9898;SDS011;4988;49.238;6.698;2023-02-02T13:32:53;11.13;;;3.70;;
9898;SDS011;4988;49.238;6.698;2023-02-02T13:35:23;9.17;;;3.27;;
9898;SDS011;4988;49.238;6.698;2023-02-02T13:38:04;11.20;;;3.77;;
9898;SDS011;4988;49.238;6.698;2023-02-02T13:40:40;12.40;;;3.50;;
9898;SDS011;4988;49.238;6.698;2023-02-02T13:45:41;11.90;;;3.50;;
9898;SDS011;4988;49.238;6.698;2023-02-02T13:51:05;17.93;;;3.70;;
9898;SDS011;4988;49.238;6.698;2023-02-02T13:53:53;8.27;;;3.50;;
9898;SDS011;4988;49.238;6.698;2023-02-02T13:59:16;9.63;;;4.17;;
9898;SDS011;4988;49.238;6.698;2023-02-02T14:01:47;9.20;;;4.40;;
9898;SDS011;4988;49.238;6.698;2023-02-02T14:04:21;8.93;;;3.30;;
9898;SDS011;4988;49.238;6.698;2023-02-02T14:07:03;9.60;;;3.33;;
9898;SDS011;4988;49.238;6.698;2023-02-02T14:09:34;7.67;;;3.40;;
9898;SDS011;4988;49.238;6.698;2023-02-02T14:12:03;10.10;;;3.50;;
9898;SDS011;4988;49.238;6.698;2023-02-02T14:14:31;9.53;;;3.20;;
9898;SDS011;4988;49.238;6.698;2023-02-02T14:17:00;9.30;;;3.27;;
9898;SDS011;4988;49.238;6.698;2023-02-02T14:27:00;10.80;;;3.83;;
9898;SDS011;4988;49.238;6.698;2023-02-02T14:31:59;8.03;;;3.30;;
9898;SDS011;4988;49.238;6.698;2023-02-02T14:45:41;11.50;;;3.77;;
9898;SDS011;4988;49.238;6.698;2023-02-02T14:48:23;10.57;;;3.67;;
9898;SDS011;4988;49.238;6.698;2023-02-02T14:53:32;16.70;;;3.90;;
9898;SDS011;4988;49.238;6.698;2023-02-02T14:56:03;10.50;;;4.47;;
9898;SDS011;4988;49.238;6.698;2023-02-02T15:06:26;12.33;;;3.37;;
9898;SDS011;4988;49.238;6.698;2023-02-02T15:22:55;12.20;;;4.07;;
9898;SDS011;4988;49.238;6.698;2023-02-02T15:33:57;10.77;;;3.53;;
9898;SDS011;4988;49.238;6.698;2023-02-02T15:36:27;15.37;;;3.70;;
9898;SDS011;4988;49.238;6.698;2023-02-02T15:39:02;11.70;;;3.57;;
9898;SDS011;4988;49.238;6.698;2023-02-02T15:41:41;10.50;;;3.60;;
9898;SDS011;4988;49.238;6.698;2023-02-02T15:44:24;13.60;;;4.50;;
9898;SDS011;4988;49.238;6.698;2023-02-02T15:46:51;13.20;;;4.10;;
9898;SDS011;4988;49.238;6.698;2023-02-02T15:51:45;11.73;;;3.83;;
9898;SDS011;4988;49.238;6.698;2023-02-02T15:54:20;13.53;;;4.80;;
9898;SDS011;4988;49.238;6.698;2023-02-02T15:56:47;12.00;;;4.43;;
9898;SDS011;4988;49.238;6.698;2023-02-02T15:59:16;15.43;;;4.70;;
9898;SDS011;4988;49.238;6.698;2023-02-02T16:01:46;14.53;;;4.60;;
9898;SDS011;4988;49.238;6.698;2023-02-02T16:04:15;14.27;;;4.80;;
9898;SDS011;4988;49.238;6.698;2023-02-02T16:06:47;15.70;;;4.70;;
9898;SDS011;4988;49.238;6.698;2023-02-02T16:09:18;9.93;;;4.50;;
9898;SDS011;4988;49.238;6.698;2023-02-02T16:11:48;12.27;;;4.20;;
9898;SDS011;4988;49.238;6.698;2023-02-02T16:14:15;15.13;;;5.37;;
9898;SDS011;4988;49.238;6.698;2023-02-02T16:16:44;14.57;;;4.53;;
9898;SDS011;4988;49.238;6.698;2023-02-02T16:19:20;12.63;;;4.27;;
9898;SDS011;4988;49.238;6.698;2023-02-02T16:24:38;13.03;;;3.90;;
9898;SDS011;4988;49.238;6.698;2023-02-02T16:27:06;10.40;;;3.80;;
9898;SDS011;4988;49.238;6.698;2023-02-02T16:29:36;14.20;;;4.20;;
9898;SDS011;4988;49.238;6.698;2023-02-02T16:32:04;11.87;;;4.10;;
9898;SDS011;4988;49.238;6.698;2023-02-02T16:39:56;15.83;;;5.03;;
9898;SDS011;4988;49.238;6.698;2023-02-02T16:42:39;13.20;;;3.80;;
9898;SDS011;4988;49.238;6.698;2023-02-02T16:45:04;15.27;;;4.53;;
9898;SDS011;4988;49.238;6.698;2023-02-02T16:47:31;9.63;;;3.90;;
9898;SDS011;4988;49.238;6.698;2023-02-02T16:52:56;20.77;;;4.27;;
9898;SDS011;4988;49.238;6.698;2023-02-02T16:55:30;13.27;;;4.00;;
9898;SDS011;4988;49.238;6.698;2023-02-02T16:57:57;11.20;;;4.10;;
9898;SDS011;4988;49.238;6.698;2023-02-02T17:00:27;14.03;;;5.00;;
9898;SDS011;4988;49.238;6.698;2023-02-02T17:03:02;21.03;;;5.00;;
9898;SDS011;4988;49.238;6.698;2023-02-02T17:05:45;10.67;;;4.57;;
9898;SDS011;4988;49.238;6.698;2023-02-02T17:08:13;17.40;;;4.80;;
9898;SDS011;4988;49.238;6.698;2023-02-02T17:13:50;16.07;;;5.07;;
9898;SDS011;4988;49.238;6.698;2023-02-02T17:16:18;14.50;;;5.30;;
9898;SDS011;4988;49.238;6.698;2023-02-02T17:18:45;15.20;;;5.03;;
9898;SDS011;4988;49.238;6.698;2023-02-02T17:21:17;14.73;;;5.40;;
9898;SDS011;4988;49.238;6.698;2023-02-02T17:23:49;19.23;;;5.13;;
9898;SDS011;4988;49.238;6.698;2023-02-02T17:26:18;15.00;;;6.17;;
9898;SDS011;4988;49.238;6.698;2023-02-02T17:28:45;14.77;;;4.73;;
9898;SDS011;4988;49.238;6.698;2023-02-02T17:31:11;19.90;;;5.50;;
9898;SDS011;4988;49.238;6.698;2023-02-02T17:33:41;17.33;;;5.03;;
9898;SDS011;4988;49.238;6.698;2023-02-02T17:36:13;19.33;;;4.80;;
9898;SDS011;4988;49.238;6.698;2023-02-02T17:38:38;13.73;;;4.67;;
9898;SDS011;4988;49.238;6.698;2023-02-02T17:41:04;15.27;;;4.20;;
9898;SDS011;4988;49.238;6.698;2023-02-02T17:43:31;14.10;;;5.43;;
9898;SDS011;4988;49.238;6.698;2023-02-02T17:45:57;13.40;;;5.53;;
9898;SDS011;4988;49.238;6.698;2023-02-02T17:48:23;15.20;;;4.63;;
9898;SDS011;4988;49.238;6.698;2023-02-02T17:50:48;13.87;;;4.50;;
9898;SDS011;4988;49.238;6.698;2023-02-02T17:53:15;11.67;;;4.37;;
9898;SDS011;4988;49.238;6.698;2023-02-02T17:55:43;10.37;;;4.30;;
9898;SDS011;4988;49.238;6.698;2023-02-02T17:58:09;13.53;;;4.00;;
9898;SDS011;4988;49.238;6.698;2023-02-02T18:00:38;7.40;;;3.33;;
9898;SDS011;4988;49.238;6.698;2023-02-02T18:03:18;13.17;;;4.73;;
9898;SDS011;4988;49.238;6.698;2023-02-02T18:05:48;25.43;;;5.23;;
9898;SDS011;4988;49.238;6.698;2023-02-02T18:08:15;19.27;;;5.27;;
9898;SDS011;4988;49.238;6.698;2023-02-02T18:10:40;18.77;;;5.70;;
9898;SDS011;4988;49.238;6.698;2023-02-02T18:13:06;21.70;;;6.47;;
9898;SDS011;4988;49.238;6.698;2023-02-02T18:15:37;14.33;;;5.10;;
9898;SDS011;4988;49.238;6.698;2023-02-02T18:18:02;18.77;;;6.20;;
9898;SDS011;4988;49.238;6.698;2023-02-02T18:20:28;14.07;;;4.90;;
9898;SDS011;4988;49.238;6.698;2023-02-02T18:22:53;15.53;;;4.17;;
9898;SDS011;4988;49.238;6.698;2023-02-02T18:25:18;12.53;;;3.90;;